Time;durP1;ratioP1;P1;durP2;ratioP2;P2;SDS_P1;SDS_P2;PMS_P1;PMS_P2;Temp;Humidity;BMP_temperature;BMP_pressure;BME280_temperature;BME280_humidity;BME280_pressure;Samples;Min_cycle;Max_cycle;Signal;HPM_P1;HPM_P2
2024/01/21 00:01:31;;;;;;;3.77;2.80;;;1.40;99.90;;;;;;5036221;28;20253;-45
2024/01/21 00:04:00;;;;;;;4.10;2.87;;;1.40;99.90;;;;;;5026027;28;20231;-45
2024/01/21 00:06:26;;;;;;;2.67;2.43;;;1.40;99.90;;;;;;5004396;28;20227;-45
2024/01/21 00:08:53;;;;;;;2.57;2.27;;;1.40;99.90;;;;;;5034314;28;20616;-44
2024/01/21 00:11:20;;;;;;;3.67;2.60;;;1.40;99.90;;;;;;5027748;28;20234;-45
2024/01/21 00:13:47;;;;;;;2.53;2.33;;;1.40;99.90;;;;;;5027331;28;20261;-48
2024/01/21 00:16:13;;;;;;;4.57;2.37;;;1.40;99.90;;;;;;5036134;28;20188;-46
2024/01/21 00:18:40;;;;;;;3.63;2.37;;;1.40;99.90;;;;;;5028294;28;20270;-46
2024/01/21 00:21:09;;;;;;;3.67;2.70;;;1.40;99.90;;;;;;5032162;28;20274;-47
2024/01/21 00:23:36;;;;;;;4.03;2.50;;;1.40;99.90;;;;;;5003366;28;20215;-47
2024/01/21 00:26:03;;;;;;;3.63;2.37;;;1.50;99.90;;;;;;5031651;28;20199;-49
2024/01/21 00:28:29;;;;;;;2.40;2.03;;;1.50;99.90;;;;;;5026433;28;20204;-46
2024/01/21 00:30:56;;;;;;;2.77;2.07;;;1.50;99.90;;;;;;5032791;28;20212;-45
2024/01/21 00:33:23;;;;;;;2.73;1.90;;;1.50;99.90;;;;;;5038608;28;20222;-45
2024/01/21 00:35:50;;;;;;;3.03;2.07;;;1.50;99.90;;;;;;5032936;28;20621;-48
2024/01/21 00:38:18;;;;;;;2.47;2.10;;;1.50;99.90;;;;;;5013432;28;20269;-45
2024/01/21 00:40:45;;;;;;;2.03;1.83;;;1.50;99.90;;;;;;5034744;28;20212;-44
2024/01/21 00:43:12;;;;;;;5.13;2.23;;;1.50;99.90;;;;;;5037585;28;20183;-49
2024/01/21 00:45:38;;;;;;;2.43;2.07;;;1.50;99.90;;;;;;5031706;28;20219;-46
2024/01/21 00:48:07;;;;;;;4.00;2.17;;;1.50;99.90;;;;;;5031021;28;20187;-47
2024/01/21 00:50:33;;;;;;;3.87;2.30;;;1.50;99.90;;;;;;5034919;28;20569;-47
2024/01/21 00:53:00;;;;;;;2.43;2.20;;;1.60;99.90;;;;;;5004712;28;21124;-51
2024/01/21 00:55:28;;;;;;;1.93;1.80;;;1.60;99.90;;;;;;5034898;28;20682;-50
2024/01/21 00:57:55;;;;;;;2.43;1.97;;;1.50;99.90;;;;;;5033528;28;20215;-45
2024/01/21 01:00:25;;;;;;;2.37;1.70;;;1.50;99.90;;;;;;5027293;28;20234;-46
2024/01/21 01:02:52;;;;;;;1.60;1.50;;;1.50;99.90;;;;;;5036200;28;20200;-46
2024/01/21 01:05:19;;;;;;;3.37;2.20;;;1.50;99.90;;;;;;5037024;28;20195;-47
2024/01/21 01:07:46;;;;;;;1.83;1.60;;;1.50;99.90;;;;;;5024936;28;20187;-49
2024/01/21 01:10:13;;;;;;;1.77;1.67;;;1.50;99.90;;;;;;5020541;28;20216;-49
2024/01/21 01:12:42;;;;;;;2.63;1.87;;;1.50;99.90;;;;;;5030874;28;20222;-45
2024/01/21 01:15:11;;;;;;;2.10;1.60;;;1.50;99.90;;;;;;5021883;28;20203;-46
2024/01/21 01:17:37;;;;;;;4.37;1.87;;;1.50;99.90;;;;;;5038217;28;20215;-46
2024/01/21 01:20:06;;;;;;;1.80;1.50;;;1.50;99.90;;;;;;5011712;28;20212;-48
2024/01/21 01:22:32;;;;;;;2.43;1.67;;;1.50;99.90;;;;;;5031389;28;20192;-45
2024/01/21 01:24:59;;;;;;;2.63;1.50;;;1.50;99.90;;;;;;5003217;28;20275;-47
2024/01/21 01:27:26;;;;;;;2.70;2.13;;;1.50;99.90;;;;;;5035013;28;20195;-48
2024/01/21 01:29:54;;;;;;;4.37;1.67;;;1.50;99.90;;;;;;5031302;28;20228;-46
2024/01/21 01:32:21;;;;;;;2.87;1.70;;;1.40;99.90;;;;;;5036569;28;20203;-50
2024/01/21 01:34:49;;;;;;;2.07;1.67;;;1.40;99.90;;;;;;5036126;28;20207;-47
2024/01/21 01:37:16;;;;;;;3.80;1.90;;;1.40;99.90;;;;;;5031553;28;20301;-48
2024/01/21 01:39:43;;;;;;;2.23;1.87;;;1.40;99.90;;;;;;5004440;28;20242;-46
2024/01/21 01:42:10;;;;;;;2.63;1.70;;;1.50;99.90;;;;;;5031319;28;20187;-46
2024/01/21 01:44:40;;;;;;;3.20;1.80;;;1.50;99.90;;;;;;5036463;28;20199;-48
2024/01/21 01:47:09;;;;;;;1.83;1.50;;;1.40;99.90;;;;;;5025807;28;20899;-47
2024/01/21 01:49:37;;;;;;;2.90;1.87;;;1.40;99.90;;;;;;5039564;28;20713;-46
2024/01/21 01:52:05;;;;;;;2.50;1.67;;;1.50;99.90;;;;;;5030156;28;20203;-46
2024/01/21 01:54:35;;;;;;;1.60;1.50;;;1.40;99.90;;;;;;5037815;28;20200;-47
2024/01/21 01:57:04;;;;;;;3.63;1.80;;;1.40;99.90;;;;;;5006111;28;20250;-45
2024/01/21 01:59:34;;;;;;;3.10;2.10;;;1.40;99.90;;;;;;5037743;28;20215;-45
2024/01/21 02:02:01;;;;;;;3.70;1.97;;;1.50;99.90;;;;;;5023692;28;20203;-49
2024/01/21 02:04:30;;;;;;;1.80;1.60;;;1.50;99.90;;;;;;5035248;28;20239;-47
2024/01/21 02:06:56;;;;;;;2.27;1.70;;;1.50;99.90;;;;;;5034325;28;20761;-46
2024/01/21 02:09:23;;;;;;;4.70;1.80;;;1.50;99.90;;;;;;5036462;28;20286;-46
2024/01/21 02:11:50;;;;;;;4.07;1.70;;;1.40;99.90;;;;;;5010680;28;20741;-47
2024/01/21 02:14:17;;;;;;;2.20;1.63;;;1.40;99.90;;;;;;5038218;28;20352;-48
2024/01/21 02:16:44;;;;;;;4.63;1.93;;;1.40;99.90;;;;;;5026383;28;20204;-47
2024/01/21 02:19:20;;;;;;;5.60;1.80;;;1.40;99.90;;;;;;5030914;28;20215;-46
2024/01/21 02:21:48;;;;;;;1.40;1.30;;;1.30;99.90;;;;;;5029447;28;20208;-48
2024/01/21 02:24:17;;;;;;;2.23;1.40;;;1.30;99.90;;;;;;5014846;28;20881;-47
2024/01/21 02:26:43;;;;;;;1.40;1.30;;;1.30;99.90;;;;;;5007829;28;20281;-45
2024/01/21 02:29:10;;;;;;;1.70;1.30;;;1.30;99.90;;;;;;5028982;28;20207;-46
2024/01/21 02:31:37;;;;;;;1.50;1.33;;;1.20;99.90;;;;;;5027485;28;20200;-47
2024/01/21 02:34:04;;;;;;;1.70;1.40;;;1.10;99.90;;;;;;5027399;28;20921;-46
2024/01/21 02:36:30;;;;;;;1.90;1.50;;;1.00;99.90;;;;;;5034995;28;20265;-47
2024/01/21 02:38:57;;;;;;;4.17;1.33;;;1.00;99.90;;;;;;5029877;28;20224;-46
2024/01/21 02:41:25;;;;;;;2.97;1.60;;;0.90;99.90;;;;;;5008666;28;20204;-45
2024/01/21 02:43:52;;;;;;;2.70;1.57;;;0.90;99.90;;;;;;5034996;28;20679;-45
2024/01/21 02:46:19;;;;;;;2.23;1.47;;;0.80;99.90;;;;;;5024954;28;20230;-48
2024/01/21 02:48:46;;;;;;;1.70;1.17;;;0.80;99.90;;;;;;5034092;28;20207;-46
2024/01/21 02:51:14;;;;;;;2.87;2.10;;;0.70;99.90;;;;;;5035374;28;20509;-47
2024/01/21 02:53:40;;;;;;;1.90;1.40;;;0.70;99.90;;;;;;5036862;28;20196;-45
2024/01/21 02:56:07;;;;;;;2.03;1.70;;;0.60;99.90;;;;;;5032327;28;20254;-47
2024/01/21 02:58:35;;;;;;;1.83;1.60;;;0.50;99.90;;;;;;5004060;28;20293;-45
2024/01/21 03:01:02;;;;;;;1.60;1.50;;;0.50;99.90;;;;;;5033290;28;20252;-48
2024/01/21 03:03:29;;;;;;;2.33;1.67;;;0.50;99.90;;;;;;5033029;28;20208;-46
2024/01/21 03:05:56;;;;;;;3.80;1.37;;;0.50;99.90;;;;;;5030735;28;20604;-46
2024/01/21 03:08:22;;;;;;;2.27;1.57;;;0.50;99.90;;;;;;5036200;28;20195;-49
2024/01/21 03:10:51;;;;;;;2.40;1.67;;;0.40;99.90;;;;;;5035274;28;20201;-44
2024/01/21 03:13:17;;;;;;;2.90;1.70;;;0.40;99.90;;;;;;5006911;28;20615;-45
2024/01/21 03:15:46;;;;;;;3.60;1.40;;;0.30;99.90;;;;;;5034351;28;20306;-44
2024/01/21 03:18:12;;;;;;;2.63;1.43;;;0.30;99.90;;;;;;5027394;28;21007;-45
2024/01/21 03:20:40;;;;;;;2.60;1.47;;;0.30;99.90;;;;;;5034991;28;20719;-47
2024/01/21 03:23:06;;;;;;;3.07;1.97;;;0.30;99.90;;;;;;5028201;28;20191;-47
2024/01/21 03:25:33;;;;;;;3.17;1.53;;;0.30;99.90;;;;;;5029042;28;20329;-45
2024/01/21 03:28:00;;;;;;;2.13;1.93;;;0.40;99.90;;;;;;5027710;28;20195;-47
2024/01/21 03:30:27;;;;;;;1.97;1.80;;;0.40;99.90;;;;;;5008844;28;20686;-45
2024/01/21 03:32:55;;;;;;;2.07;1.87;;;0.40;99.90;;;;;;5022426;28;20565;-46
2024/01/21 03:35:22;;;;;;;3.00;1.90;;;0.40;99.90;;;;;;5036378;28;20207;-45
2024/01/21 03:37:48;;;;;;;2.27;1.70;;;0.50;99.90;;;;;;5030257;28;20261;-46
2024/01/21 03:40:15;;;;;;;3.80;2.17;;;0.50;99.90;;;;;;5028924;28;20903;-45
2024/01/21 03:42:43;;;;;;;2.97;1.83;;;0.50;99.90;;;;;;5031148;28;20253;-51
2024/01/21 03:45:10;;;;;;;3.17;1.80;;;0.60;99.90;;;;;;5008743;28;20281;-49
2024/01/21 03:47:37;;;;;;;2.10;1.90;;;0.60;99.90;;;;;;5035575;28;20249;-46
2024/01/21 03:50:06;;;;;;;3.67;1.83;;;0.60;99.90;;;;;;5033920;28;20218;-46
2024/01/21 03:52:33;;;;;;;3.70;2.00;;;0.70;99.90;;;;;;5039897;28;20196;-46
2024/01/21 03:55:01;;;;;;;3.50;2.23;;;0.70;99.90;;;;;;5029325;28;20265;-45
2024/01/21 03:57:28;;;;;;;2.07;1.50;;;0.70;99.90;;;;;;5036258;28;20207;-45
2024/01/21 03:59:55;;;;;;;2.47;2.10;;;0.80;99.90;;;;;;5008921;28;20269;-47
2024/01/21 04:02:23;;;;;;;3.30;1.90;;;0.80;99.90;;;;;;5040923;28;20250;-46
2024/01/21 04:04:52;;;;;;;4.07;2.03;;;0.80;99.90;;;;;;5021501;28;20226;-46
2024/01/21 04:07:20;;;;;;;3.17;1.80;;;0.80;99.90;;;;;;5037426;28;20196;-50
2024/01/21 04:09:47;;;;;;;5.10;2.13;;;0.80;99.90;;;;;;5037465;28;20223;-46
2024/01/21 04:12:13;;;;;;;2.47;2.00;;;0.90;99.90;;;;;;5034590;28;20200;-48
2024/01/21 04:14:40;;;;;;;2.97;2.20;;;0.90;99.90;;;;;;5039649;28;20261;-45
2024/01/21 04:17:07;;;;;;;2.30;2.03;;;0.90;99.90;;;;;;5004170;28;20208;-46
2024/01/21 04:19:34;;;;;;;3.27;2.10;;;0.90;99.90;;;;;;5029316;28;20993;-47
2024/01/21 04:22:01;;;;;;;3.67;2.47;;;1.00;99.90;;;;;;5040347;28;20270;-48
2024/01/21 04:24:29;;;;;;;3.03;2.20;;;1.00;99.90;;;;;;5030920;28;20200;-45
2024/01/21 04:26:56;;;;;;;2.80;2.37;;;1.10;99.90;;;;;;5036942;28;20667;-45
2024/01/21 04:29:23;;;;;;;2.63;2.00;;;1.10;99.90;;;;;;5034298;28;20224;-44
2024/01/21 04:31:50;;;;;;;2.03;1.90;;;1.10;99.90;;;;;;5012547;28;20298;-44
2024/01/21 04:34:16;;;;;;;2.50;1.70;;;1.00;99.90;;;;;;5036879;28;20188;-44
2024/01/21 04:36:43;;;;;;;2.77;2.10;;;1.00;99.90;;;;;;5025620;28;20200;-47
2024/01/21 04:39:11;;;;;;;2.53;1.97;;;1.00;99.90;;;;;;5037696;28;20256;-45
2024/01/21 04:41:39;;;;;;;2.83;2.13;;;1.00;99.90;;;;;;5031146;28;20204;-44
2024/01/21 04:44:06;;;;;;;2.23;1.70;;;0.90;99.90;;;;;;5032135;28;20196;-44
2024/01/21 04:46:32;;;;;;;2.23;2.03;;;0.90;99.90;;;;;;5000261;28;20620;-47
2024/01/21 04:48:59;;;;;;;3.63;2.07;;;0.90;99.90;;;;;;5037147;28;20215;-46
2024/01/21 04:51:26;;;;;;;3.53;2.43;;;0.90;99.90;;;;;;5025098;28;20924;-45
2024/01/21 04:53:53;;;;;;;4.20;2.27;;;0.90;99.90;;;;;;5036369;28;20271;-47
2024/01/21 04:56:20;;;;;;;2.30;1.97;;;0.90;99.90;;;;;;5029744;28;20200;-45
2024/01/21 04:58:48;;;;;;;2.73;2.00;;;0.90;99.90;;;;;;5038601;28;20703;-46
2024/01/21 05:01:17;;;;;;;3.10;2.33;;;0.90;99.90;;;;;;5025235;28;20222;-47
2024/01/21 05:03:43;;;;;;;2.40;2.03;;;0.90;99.90;;;;;;5025382;28;20200;-46
2024/01/21 05:06:10;;;;;;;2.17;2.00;;;0.90;99.90;;;;;;5030786;28;20695;-47
2024/01/21 05:08:37;;;;;;;3.13;2.00;;;1.00;99.90;;;;;;5027690;28;20199;-47
2024/01/21 05:11:04;;;;;;;3.20;2.27;;;1.00;99.90;;;;;;5032871;28;20258;-46
2024/01/21 05:13:31;;;;;;;2.47;1.90;;;1.00;99.90;;;;;;5028249;28;20191;-48
2024/01/21 05:15:59;;;;;;;1.90;1.73;;;1.00;99.90;;;;;;5029208;28;20212;-46
2024/01/21 05:18:26;;;;;;;4.77;2.23;;;1.00;99.90;;;;;;5002256;28;20208;-46
2024/01/21 05:20:52;;;;;;;3.30;2.10;;;1.10;99.90;;;;;;5028156;28;20606;-45
2024/01/21 05:23:20;;;;;;;5.50;2.07;;;1.10;99.90;;;;;;5031545;28;20578;-47
2024/01/21 05:25:50;;;;;;;2.30;2.10;;;1.10;99.90;;;;;;5038476;28;20660;-45
2024/01/21 05:28:17;;;;;;;5.70;2.33;;;1.10;99.90;;;;;;5027303;28;20613;-47
2024/01/21 05:30:43;;;;;;;2.67;1.97;;;1.10;99.90;;;;;;5035153;28;20220;-49
2024/01/21 05:33:12;;;;;;;3.80;1.90;;;1.10;99.90;;;;;;5020958;28;20699;-48
2024/01/21 05:35:38;;;;;;;2.40;1.90;;;1.20;99.90;;;;;;5023699;28;20195;-46
2024/01/21 05:38:08;;;;;;;2.10;1.90;;;1.20;99.90;;;;;;5028696;28;20287;-44
2024/01/21 05:40:35;;;;;;;3.20;2.00;;;1.30;99.90;;;;;;5027745;28;20230;-47
2024/01/21 05:43:02;;;;;;;2.00;1.90;;;1.30;99.90;;;;;;5036228;28;20203;-49
2024/01/21 05:45:29;;;;;;;2.37;2.13;;;1.40;99.90;;;;;;5032666;28;21017;-44
2024/01/21 05:47:56;;;;;;;2.10;1.47;;;1.50;99.90;;;;;;5035507;28;20233;-46
2024/01/21 05:50:24;;;;;;;2.60;1.70;;;1.50;99.90;;;;;;5003828;28;20224;-46
2024/01/21 05:52:50;;;;;;;1.70;1.60;;;1.60;99.90;;;;;;5027861;28;20690;-46
2024/01/21 05:55:17;;;;;;;1.53;1.30;;;1.60;99.90;;;;;;5030682;28;20197;-47
2024/01/21 05:57:44;;;;;;;2.00;1.50;;;1.70;99.90;;;;;;5032560;28;20183;-46
2024/01/21 06:00:12;;;;;;;3.07;1.40;;;1.70;99.90;;;;;;5034674;28;20212;-47
2024/01/21 06:02:39;;;;;;;4.93;1.57;;;1.70;99.90;;;;;;5031975;28;20215;-49
2024/01/21 06:05:06;;;;;;;1.60;1.50;;;1.70;99.90;;;;;;5006806;28;20753;-44
2024/01/21 06:07:34;;;;;;;2.40;1.57;;;1.70;99.90;;;;;;5025303;28;21738;-46
2024/01/21 06:10:01;;;;;;;2.40;1.63;;;1.70;99.90;;;;;;5030165;28;20223;-45
2024/01/21 06:12:28;;;;;;;2.00;1.30;;;1.70;99.90;;;;;;5012382;28;20853;-47
2024/01/21 06:14:55;;;;;;;1.63;1.20;;;1.70;99.90;;;;;;5034192;28;20199;-47
2024/01/21 06:17:22;;;;;;;2.23;1.43;;;1.70;99.90;;;;;;5031461;28;20246;-48
2024/01/21 06:19:49;;;;;;;1.70;1.33;;;1.70;99.90;;;;;;5006295;28;20219;-47
2024/01/21 06:22:16;;;;;;;2.97;1.60;;;1.70;99.90;;;;;;5040784;28;20191;-47
2024/01/21 06:24:44;;;;;;;1.47;1.23;;;1.70;99.90;;;;;;5029270;28;20203;-47
2024/01/21 06:27:11;;;;;;;2.40;1.67;;;1.70;99.90;;;;;;5034506;28;20313;-47
2024/01/21 06:29:38;;;;;;;1.93;1.40;;;1.70;99.90;;;;;;5033221;28;20246;-49
2024/01/21 06:32:05;;;;;;;1.63;1.53;;;1.70;99.90;;;;;;5031753;28;20223;-47
2024/01/21 06:34:32;;;;;;;2.57;1.20;;;1.80;99.90;;;;;;5001209;28;20231;-46
2024/01/21 06:36:59;;;;;;;2.07;1.23;;;1.80;99.90;;;;;;5033103;28;20729;-45
2024/01/21 06:39:26;;;;;;;3.37;1.67;;;1.80;99.90;;;;;;5023264;28;20989;-47
2024/01/21 06:41:54;;;;;;;2.30;1.20;;;1.80;99.90;;;;;;5034548;28;20199;-46
2024/01/21 06:44:21;;;;;;;2.50;1.30;;;1.80;99.90;;;;;;5033255;28;20202;-45
2024/01/21 06:46:48;;;;;;;1.57;1.20;;;1.80;99.90;;;;;;5037828;28;20199;-47
2024/01/21 06:49:14;;;;;;;1.83;1.50;;;1.90;99.90;;;;;;5029397;28;20269;-47
2024/01/21 06:51:46;;;;;;;2.07;1.30;;;1.80;99.90;;;;;;5011185;28;20212;-51
2024/01/21 06:54:13;;;;;;;1.70;1.33;;;1.80;99.90;;;;;;5031371;28;20222;-44
2024/01/21 06:56:40;;;;;;;2.17;1.17;;;1.90;99.90;;;;;;5038355;28;20278;-47
2024/01/21 06:59:09;;;;;;;1.20;1.07;;;1.80;99.90;;;;;;5033705;28;20214;-46
2024/01/21 07:01:35;;;;;;;2.00;1.37;;;1.80;99.90;;;;;;5031666;28;20983;-46
2024/01/21 07:04:02;;;;;;;2.10;1.40;;;1.80;99.90;;;;;;5036525;28;20198;-47
2024/01/21 07:06:29;;;;;;;1.77;1.20;;;1.80;99.90;;;;;;5007566;28;20196;-46
2024/01/21 07:08:56;;;;;;;1.67;1.17;;;1.80;99.90;;;;;;5034860;28;20645;-47
2024/01/21 07:11:23;;;;;;;2.13;1.40;;;1.80;99.90;;;;;;5019424;28;20200;-46
2024/01/21 07:13:50;;;;;;;1.63;1.23;;;1.80;99.90;;;;;;5028246;28;20230;-45
2024/01/21 07:16:18;;;;;;;1.47;1.00;;;1.80;99.90;;;;;;5034233;28;20221;-46
2024/01/21 07:18:45;;;;;;;3.23;0.97;;;1.90;99.90;;;;;;5034595;28;20203;-47
2024/01/21 07:21:11;;;;;;;2.10;1.40;;;1.90;99.90;;;;;;5020056;28;20238;-47
2024/01/21 07:23:39;;;;;;;1.50;1.40;;;1.90;99.70;;;;;;5029274;28;20211;-45
2024/01/21 07:26:06;;;;;;;1.37;1.27;;;1.90;99.90;;;;;;5038416;28;20196;-45
2024/01/21 07:28:32;;;;;;;2.03;1.40;;;1.90;99.90;;;;;;5023251;28;20973;-46
2024/01/21 07:30:59;;;;;;;2.57;1.57;;;1.90;99.90;;;;;;5039225;28;20261;-47
2024/01/21 07:33:27;;;;;;;2.43;1.30;;;1.90;99.90;;;;;;5034223;28;20245;-48
2024/01/21 07:35:54;;;;;;;1.77;1.30;;;2.00;99.50;;;;;;5030508;28;20695;-45
2024/01/21 07:38:21;;;;;;;1.73;1.33;;;2.00;99.30;;;;;;4990267;28;20265;-47
2024/01/21 07:40:48;;;;;;;1.90;1.40;;;2.00;99.20;;;;;;5028673;28;20222;-46
2024/01/21 07:43:15;;;;;;;2.50;1.30;;;2.00;98.90;;;;;;5034623;28;20190;-48
2024/01/21 07:45:42;;;;;;;1.30;1.10;;;2.00;98.90;;;;;;5038136;28;20627;-48
2024/01/21 07:48:10;;;;;;;1.50;1.10;;;2.00;99.50;;;;;;5038500;28;20184;-46
2024/01/21 07:50:38;;;;;;;1.50;1.30;;;2.00;98.70;;;;;;5036796;28;20224;-46
2024/01/21 07:53:05;;;;;;;3.77;1.60;;;2.10;98.80;;;;;;5003665;28;22037;-45
2024/01/21 07:55:33;;;;;;;2.50;1.40;;;2.10;98.90;;;;;;5022414;28;20738;-48
2024/01/21 07:58:01;;;;;;;1.67;1.57;;;2.10;98.30;;;;;;5029677;28;20246;-48
2024/01/21 08:00:28;;;;;;;2.53;1.80;;;2.20;98.50;;;;;;5025333;28;20238;-44
2024/01/21 08:02:55;;;;;;;2.00;1.60;;;2.20;98.10;;;;;;5025559;28;20265;-47
2024/01/21 08:05:22;;;;;;;3.13;1.20;;;2.20;98.30;;;;;;5034379;28;20693;-45
2024/01/21 08:07:50;;;;;;;1.87;1.60;;;2.20;97.80;;;;;;5004531;28;21320;-46
2024/01/21 08:10:17;;;;;;;2.00;1.40;;;2.20;98.20;;;;;;5040699;28;20280;-45
2024/01/21 08:12:44;;;;;;;1.53;1.20;;;2.20;97.90;;;;;;5010346;28;21005;-49
2024/01/21 08:15:10;;;;;;;2.43;0.90;;;2.20;98.40;;;;;;5036193;28;20338;-45
2024/01/21 08:17:37;;;;;;;3.33;1.37;;;2.20;96.90;;;;;;5037664;28;20843;-48
2024/01/21 08:20:05;;;;;;;1.93;1.40;;;2.30;97.90;;;;;;5028649;28;20707;-48
2024/01/21 08:22:32;;;;;;;1.37;1.20;;;2.30;97.40;;;;;;5026353;28;20851;-46
2024/01/21 08:25:00;;;;;;;1.40;1.17;;;2.30;97.10;;;;;;5004585;28;20230;-45
2024/01/21 08:27:27;;;;;;;2.50;1.70;;;2.30;97.10;;;;;;5023795;28;20289;-47
2024/01/21 08:29:54;;;;;;;1.73;1.50;;;2.40;96.80;;;;;;5024819;28;20223;-48
2024/01/21 08:32:21;;;;;;;2.17;1.27;;;2.40;96.90;;;;;;5031199;28;20296;-45
2024/01/21 08:34:47;;;;;;;1.43;1.33;;;2.40;96.90;;;;;;5031938;28;20223;-46
2024/01/21 08:37:14;;;;;;;2.50;1.50;;;2.50;97.00;;;;;;5045768;28;20259;-46
2024/01/21 08:39:42;;;;;;;3.30;1.77;;;2.50;96.70;;;;;;5009980;28;20220;-47
2024/01/21 08:42:10;;;;;;;2.03;1.67;;;2.50;97.30;;;;;;5028631;28;20252;-50
2024/01/21 08:44:37;;;;;;;2.23;1.20;;;2.40;97.40;;;;;;5033172;28;20199;-49
2024/01/21 08:47:04;;;;;;;1.60;1.30;;;2.40;97.30;;;;;;5029821;28;20732;-45
2024/01/21 08:49:30;;;;;;;2.10;1.30;;;2.40;97.20;;;;;;5032761;28;20941;-46
2024/01/21 08:51:57;;;;;;;2.87;1.30;;;2.50;97.40;;;;;;5026625;28;20199;-49
2024/01/21 08:54:24;;;;;;;2.50;1.50;;;2.50;96.90;;;;;;5012602;28;20562;-46
2024/01/21 08:56:51;;;;;;;3.40;1.33;;;2.50;96.50;;;;;;5034960;28;20199;-50
2024/01/21 08:59:22;;;;;;;3.77;1.77;;;2.50;96.90;;;;;;5022592;28;20260;-48
2024/01/21 09:01:50;;;;;;;2.60;1.70;;;2.50;96.30;;;;;;5025084;28;20675;-46
2024/01/21 09:04:17;;;;;;;1.80;1.60;;;2.60;96.40;;;;;;5040093;28;20379;-46
2024/01/21 09:06:43;;;;;;;1.80;1.40;;;2.60;96.10;;;;;;5027431;28;20249;-47
2024/01/21 09:09:11;;;;;;;4.40;1.60;;;2.70;96.60;;;;;;5036558;28;20254;-46
2024/01/21 09:11:38;;;;;;;2.00;1.60;;;2.70;96.40;;;;;;5010819;28;20230;-46
2024/01/21 09:14:05;;;;;;;2.20;1.77;;;2.80;96.30;;;;;;5026013;28;20320;-46
2024/01/21 09:16:34;;;;;;;1.63;1.53;;;2.80;96.00;;;;;;5039178;28;20281;-50
2024/01/21 09:19:01;;;;;;;1.30;1.17;;;2.80;95.90;;;;;;5030691;28;20227;-45
2024/01/21 09:21:28;;;;;;;2.03;1.63;;;2.90;96.00;;;;;;5030762;28;20214;-46
2024/01/21 09:23:55;;;;;;;3.17;1.27;;;2.90;95.70;;;;;;5034199;28;20210;-49
2024/01/21 09:26:22;;;;;;;1.47;1.23;;;3.00;96.00;;;;;;5006528;28;20990;-47
2024/01/21 09:28:49;;;;;;;2.60;1.63;;;3.00;95.30;;;;;;5030056;28;20269;-50
2024/01/21 09:31:16;;;;;;;4.40;1.47;;;3.10;95.20;;;;;;5008602;28;20223;-49
2024/01/21 09:33:44;;;;;;;2.40;1.77;;;3.10;94.20;;;;;;5030126;28;20211;-47
2024/01/21 09:36:12;;;;;;;2.23;1.33;;;3.20;93.80;;;;;;5029324;28;20659;-47
2024/01/21 09:38:39;;;;;;;1.60;1.40;;;3.30;94.20;;;;;;5023480;28;20203;-46
2024/01/21 09:41:18;;;;;;;2.13;1.43;;;3.40;94.40;;;;;;5017503;28;20624;-46
2024/01/21 09:43:45;;;;;;;1.70;1.33;;;3.40;94.10;;;;;;5039516;28;20198;-45
2024/01/21 09:46:13;;;;;;;1.10;1.00;;;3.50;93.70;;;;;;5030691;28;20546;-46
2024/01/21 09:48:40;;;;;;;1.57;1.47;;;3.50;93.60;;;;;;5034433;28;20203;-46
2024/01/21 09:51:08;;;;;;;1.67;1.30;;;3.60;93.10;;;;;;5028069;28;20188;-48
2024/01/21 09:53:35;;;;;;;1.67;1.53;;;3.70;92.40;;;;;;5036773;28;20218;-50
2024/01/21 09:56:07;;;;;;;2.03;1.33;;;3.80;92.00;;;;;;5013055;28;20572;-46
2024/01/21 09:58:38;;;;;;;1.53;1.10;;;3.80;92.00;;;;;;5028471;28;20246;-46
2024/01/21 10:01:06;;;;;;;1.50;1.37;;;3.80;91.00;;;;;;5026975;28;20238;-45
2024/01/21 10:03:32;;;;;;;2.10;1.37;;;3.90;91.60;;;;;;5039919;28;20268;-46
2024/01/21 10:06:00;;;;;;;1.67;1.50;;;3.90;92.40;;;;;;5038254;28;20237;-53
2024/01/21 10:08:28;;;;;;;1.60;1.20;;;3.90;92.00;;;;;;5026591;28;20194;-47
2024/01/21 10:10:56;;;;;;;2.47;1.60;;;4.00;91.30;;;;;;5033780;28;20199;-45
2024/01/21 10:13:23;;;;;;;2.10;1.40;;;4.00;92.30;;;;;;5010721;28;20298;-47
2024/01/21 10:15:51;;;;;;;2.23;1.50;;;4.00;91.60;;;;;;5039853;28;20294;-45
2024/01/21 10:18:18;;;;;;;2.10;1.90;;;4.10;91.60;;;;;;5025555;28;21017;-48
2024/01/21 10:20:46;;;;;;;1.67;1.30;;;4.10;92.80;;;;;;5031940;28;20234;-51
2024/01/21 10:23:13;;;;;;;3.73;1.60;;;4.10;92.80;;;;;;5017071;28;20265;-46
2024/01/21 10:25:44;;;;;;;3.23;1.70;;;4.10;92.40;;;;;;5029032;28;20195;-48
2024/01/21 10:28:12;;;;;;;5.37;2.17;;;4.10;92.30;;;;;;5008710;28;20211;-46
2024/01/21 10:30:38;;;;;;;3.50;2.07;;;4.10;92.20;;;;;;5037341;28;20246;-48
2024/01/21 10:33:05;;;;;;;2.40;1.50;;;4.20;91.50;;;;;;5024437;28;20237;-48
2024/01/21 10:35:33;;;;;;;2.10;1.53;;;4.20;90.80;;;;;;5031037;28;20208;-45
2024/01/21 10:38:02;;;;;;;3.20;1.77;;;4.20;91.30;;;;;;5043456;28;20223;-45
2024/01/21 10:40:29;;;;;;;4.33;1.67;;;4.30;90.80;;;;;;5020631;28;20231;-46
2024/01/21 10:42:59;;;;;;;3.00;1.83;;;4.30;88.80;;;;;;5008723;28;20234;-50
2024/01/21 10:45:27;;;;;;;2.30;1.50;;;4.30;89.80;;;;;;5034557;28;20842;-50
2024/01/21 10:47:54;;;;;;;2.10;1.57;;;4.40;89.00;;;;;;5016989;28;20196;-47
2024/01/21 10:50:21;;;;;;;2.20;1.60;;;4.30;89.30;;;;;;5018019;28;20228;-45
2024/01/21 10:52:49;;;;;;;3.57;1.70;;;4.30;90.10;;;;;;5036673;28;20278;-50
2024/01/21 10:55:17;;;;;;;3.00;1.73;;;4.30;90.10;;;;;;5029695;28;20203;-47
2024/01/21 10:57:47;;;;;;;1.47;1.37;;;4.30;90.60;;;;;;5040385;28;20205;-45
2024/01/21 11:00:16;;;;;;;1.70;1.60;;;4.30;90.80;;;;;;5011249;28;20218;-46
2024/01/21 11:03:03;;;;;;;1.73;1.53;;;4.30;88.90;;;;;;5030699;28;20204;-47
2024/01/21 11:05:30;;;;;;;1.30;1.20;;;4.30;90.00;;;;;;5028701;28;20195;-45
2024/01/21 11:08:01;;;;;;;4.00;2.07;;;4.30;89.50;;;;;;5033796;28;20265;-47
2024/01/21 11:10:28;;;;;;;2.77;1.83;;;4.30;90.20;;;;;;5020083;28;20224;-49
2024/01/21 11:12:57;;;;;;;2.00;1.80;;;4.30;90.30;;;;;;5023116;28;20212;-47
2024/01/21 11:15:31;;;;;;;3.37;1.90;;;4.30;90.10;;;;;;5014870;28;20199;-47
2024/01/21 11:18:09;;;;;;;2.50;1.97;;;4.30;88.90;;;;;;5023690;28;20207;-46
2024/01/21 11:20:39;;;;;;;2.90;1.90;;;4.40;88.50;;;;;;5032030;28;20219;-46
2024/01/21 11:23:15;;;;;;;3.13;1.90;;;4.40;90.40;;;;;;5029660;28;20251;-50
2024/01/21 11:25:50;;;;;;;4.43;2.50;;;4.40;90.20;;;;;;5034188;28;20624;-50
2024/01/21 11:28:26;;;;;;;5.03;2.27;;;4.40;90.90;;;;;;5007697;28;20352;-49
2024/01/21 11:31:00;;;;;;;2.60;2.17;;;4.40;89.70;;;;;;5018757;28;20215;-47
2024/01/21 11:33:29;;;;;;;3.83;2.60;;;4.40;90.00;;;;;;5017533;28;20203;-45
2024/01/21 11:35:58;;;;;;;2.80;2.27;;;4.40;90.90;;;;;;5032284;28;20199;-47
2024/01/21 11:38:25;;;;;;;4.57;1.90;;;4.40;90.40;;;;;;5027635;28;20732;-44
2024/01/21 11:41:02;;;;;;;1.77;1.60;;;4.40;90.10;;;;;;5027995;28;20221;-47
2024/01/21 11:43:29;;;;;;;4.57;2.10;;;4.40;87.20;;;;;;5019620;28;20206;-49
2024/01/21 11:45:58;;;;;;;2.97;2.27;;;4.50;91.10;;;;;;5004738;28;20206;-47
2024/01/21 11:48:31;;;;;;;2.20;1.97;;;4.40;90.60;;;;;;5021556;28;20210;-44
2024/01/21 11:50:58;;;;;;;2.13;1.60;;;4.40;90.70;;;;;;5032616;28;20196;-48
2024/01/21 11:53:25;;;;;;;2.67;2.07;;;4.40;91.10;;;;;;5024035;28;20199;-46
2024/01/21 11:55:52;;;;;;;2.57;2.00;;;4.40;91.50;;;;;;5030631;28;20241;-48
2024/01/21 11:58:20;;;;;;;2.00;1.80;;;4.40;92.20;;;;;;5029628;28;20314;-47
2024/01/21 12:00:48;;;;;;;2.60;1.70;;;4.40;91.50;;;;;;4996861;28;20934;-47
2024/01/21 12:03:16;;;;;;;3.17;1.93;;;4.50;91.70;;;;;;5019451;28;20263;-47
2024/01/21 12:05:43;;;;;;;5.07;2.20;;;4.50;92.00;;;;;;5031499;28;20947;-47
2024/01/21 12:08:10;;;;;;;3.17;2.20;;;4.50;92.60;;;;;;5023487;28;20203;-47
2024/01/21 12:10:39;;;;;;;4.40;2.07;;;4.50;92.70;;;;;;5029443;28;20220;-46
2024/01/21 12:13:07;;;;;;;2.30;2.10;;;4.50;92.90;;;;;;5030331;28;20212;-50
2024/01/21 12:15:36;;;;;;;2.57;1.60;;;4.60;93.40;;;;;;4996049;28;20202;-46
2024/01/21 12:18:04;;;;;;;2.60;2.23;;;4.60;93.50;;;;;;5035001;28;20249;-47
2024/01/21 12:20:32;;;;;;;2.43;1.73;;;4.70;94.00;;;;;;5016269;28;20288;-47
2024/01/21 12:22:59;;;;;;;3.97;2.30;;;4.70;93.80;;;;;;5024414;28;20238;-47
2024/01/21 12:25:26;;;;;;;3.27;1.90;;;4.70;94.10;;;;;;5030138;28;20199;-44
2024/01/21 12:27:58;;;;;;;3.17;2.10;;;4.80;94.30;;;;;;5031022;28;20196;-47
2024/01/21 12:30:26;;;;;;;2.47;2.27;;;4.80;94.10;;;;;;5024385;28;20307;-45
2024/01/21 12:32:54;;;;;;;3.10;1.63;;;4.80;94.10;;;;;;5026656;28;20219;-48
2024/01/21 12:35:22;;;;;;;2.73;2.10;;;4.80;94.40;;;;;;5023793;28;20203;-47
2024/01/21 12:37:50;;;;;;;2.40;2.10;;;4.90;94.70;;;;;;5032630;28;20191;-47
2024/01/21 12:40:18;;;;;;;5.83;2.33;;;4.90;94.50;;;;;;5033541;28;20230;-48
2024/01/21 12:42:45;;;;;;;3.10;2.47;;;4.90;94.60;;;;;;5032429;28;20318;-48
2024/01/21 12:45:12;;;;;;;2.20;2.00;;;4.90;95.10;;;;;;5038910;28;20878;-47
2024/01/21 12:47:39;;;;;;;2.47;2.27;;;4.80;94.90;;;;;;5009075;28;20281;-46
2024/01/21 12:50:08;;;;;;;2.00;1.73;;;4.80;95.10;;;;;;5037695;28;20629;-50
2024/01/21 12:52:35;;;;;;;3.50;2.40;;;4.80;95.10;;;;;;5022436;28;20208;-45
2024/01/21 12:55:04;;;;;;;3.37;2.00;;;4.80;95.10;;;;;;5028937;28;20200;-47
2024/01/21 12:57:31;;;;;;;3.13;2.00;;;4.80;95.30;;;;;;5028068;28;20187;-48
2024/01/21 13:00:00;;;;;;;2.80;2.10;;;4.80;95.40;;;;;;5033142;28;20296;-46